createdAt,value
2019-02-26T00:00:30.087Z,2.93
2019-02-26T00:03:02.158Z,2.93
2019-02-26T00:05:28.606Z,2.93
2019-02-26T00:07:57.704Z,2.99
2019-02-26T00:10:26.561Z,2.90
2019-02-26T00:12:52.763Z,3.00
2019-02-26T00:15:19.415Z,2.98
2019-02-26T00:17:48.372Z,2.93
2019-02-26T00:20:17.059Z,2.92
2019-02-26T00:22:43.199Z,2.94
2019-02-26T00:25:10.425Z,2.90
2019-02-26T00:27:38.355Z,2.91
2019-02-26T00:30:09.587Z,2.85
2019-02-26T00:32:38.207Z,2.79
2019-02-26T00:35:06.846Z,2.74
2019-02-26T00:37:33.535Z,2.62
2019-02-26T00:40:00.254Z,2.61
2019-02-26T00:42:28.674Z,2.57
2019-02-26T00:44:57.621Z,2.51
2019-02-26T00:47:25.007Z,2.46
2019-02-26T00:49:53.495Z,2.45
2019-02-26T00:52:20.356Z,2.41
2019-02-26T00:54:47.050Z,2.42
2019-02-26T00:57:13.954Z,2.46
2019-02-26T00:59:41.252Z,2.49
2019-02-26T01:02:09.295Z,2.51
2019-02-26T01:04:36.018Z,2.47
2019-02-26T01:07:03.822Z,2.50
2019-02-26T01:09:32.261Z,2.55
2019-02-26T01:12:00.231Z,2.60
2019-02-26T01:14:26.895Z,2.60
2019-02-26T01:16:53.575Z,2.61
2019-02-26T01:19:20.219Z,2.55
2019-02-26T01:21:46.947Z,2.71
2019-02-26T01:24:13.700Z,2.80
2019-02-26T01:26:42.547Z,2.83
2019-02-26T01:29:09.039Z,2.86
2019-02-26T01:31:35.766Z,2.81
2019-02-26T01:34:02.386Z,2.83
2019-02-26T01:36:30.894Z,2.90
2019-02-26T01:38:57.560Z,2.93
2019-02-26T01:41:25.011Z,2.88
2019-02-26T01:43:52.861Z,2.83
2019-02-26T01:46:19.562Z,2.80
2019-02-26T01:48:46.195Z,2.60
2019-02-26T01:51:12.824Z,2.58
2019-02-26T01:53:39.527Z,2.62
2019-02-26T01:56:06.171Z,2.75
2019-02-26T01:58:33.658Z,2.68
2019-02-26T02:01:00.737Z,2.65
2019-02-26T02:03:28.024Z,2.68
2019-02-26T02:05:55.836Z,2.74
2019-02-26T02:08:24.768Z,2.75
2019-02-26T02:10:53.604Z,2.78
2019-02-26T02:13:19.559Z,2.74
2019-02-26T02:15:46.577Z,2.77
2019-02-26T02:18:13.195Z,2.80
2019-02-26T02:20:39.792Z,2.87
2019-02-26T02:23:07.078Z,2.78
2019-02-26T02:25:36.166Z,2.79
2019-02-26T02:28:04.397Z,2.82
2019-02-26T02:30:32.605Z,2.83
2019-02-26T02:33:02.011Z,2.97
2019-02-26T02:35:28.191Z,2.96
2019-02-26T02:37:57.105Z,2.98
2019-02-26T02:40:23.552Z,3.00
2019-02-26T02:42:50.219Z,3.01
2019-02-26T02:45:20.454Z,2.89
2019-02-26T02:47:45.445Z,2.87
2019-02-26T02:50:15.070Z,2.83
2019-02-26T02:52:41.398Z,2.91
2019-02-26T02:55:10.537Z,2.86
2019-02-26T02:57:37.341Z,2.93
2019-02-26T03:00:09.878Z,2.93
2019-02-26T03:02:40.587Z,3.00
2019-02-26T03:05:06.764Z,2.95
2019-02-26T03:07:33.504Z,2.93
2019-02-26T03:10:06.104Z,3.11
2019-02-26T03:12:30.660Z,3.07
2019-02-26T03:14:59.837Z,3.06
2019-02-26T03:17:25.921Z,3.04
2019-02-26T03:19:52.622Z,3.17
2019-02-26T03:22:21.568Z,3.12
2019-02-26T03:24:48.424Z,3.07
2019-02-26T03:27:16.404Z,3.09
2019-02-26T03:29:45.060Z,3.11
2019-02-26T03:32:11.673Z,3.10
2019-02-26T03:34:38.283Z,3.09
2019-02-26T03:37:06.290Z,3.09
2019-02-26T03:39:33.503Z,3.14
2019-02-26T03:42:00.133Z,3.04
2019-02-26T03:44:29.539Z,3.06
2019-02-26T03:46:56.333Z,3.01
2019-02-26T03:49:26.381Z,3.03
2019-02-26T03:51:51.578Z,3.02
2019-02-26T03:54:18.257Z,3.07
2019-02-26T03:56:45.002Z,3.07
2019-02-26T03:59:11.926Z,3.07
2019-02-26T04:01:38.580Z,2.94
2019-02-26T04:04:07.591Z,3.00
2019-02-26T04:06:35.994Z,2.92
2019-02-26T04:09:02.333Z,2.85
2019-02-26T04:11:30.205Z,2.72
2019-02-26T04:13:56.878Z,2.67
2019-02-26T04:16:23.524Z,2.74
2019-02-26T04:18:51.988Z,2.74
2019-02-26T04:21:20.933Z,2.72
2019-02-26T04:23:47.280Z,2.71
2019-02-26T04:26:21.049Z,2.74
2019-02-26T04:28:52.493Z,2.73
2019-02-26T04:31:28.751Z,2.78
2019-02-26T04:34:01.818Z,2.78
2019-02-26T04:36:31.291Z,2.69
2019-02-26T04:39:19.101Z,2.66
2019-02-26T04:42:08.304Z,2.59
2019-02-26T04:44:55.158Z,2.66
2019-02-26T04:47:26.689Z,2.71
2019-02-26T04:49:54.445Z,2.72
2019-02-26T04:52:22.045Z,2.74
2019-02-26T04:54:48.711Z,2.75
2019-02-26T04:57:15.414Z,2.56
2019-02-26T04:59:43.902Z,2.56
2019-02-26T05:02:10.735Z,2.61
2019-02-26T05:04:39.452Z,2.66
2019-02-26T05:07:08.067Z,2.65
2019-02-26T05:09:35.394Z,2.73
2019-02-26T05:12:02.291Z,2.79
2019-02-26T05:14:29.017Z,2.80
2019-02-26T05:16:55.724Z,2.53
2019-02-26T05:19:24.294Z,2.65
2019-02-26T05:21:50.941Z,2.72
2019-02-26T05:24:18.930Z,2.67
2019-02-26T05:26:46.251Z,2.66
2019-02-26T05:29:12.950Z,2.64
2019-02-26T05:31:43.044Z,2.67
2019-02-26T05:34:09.170Z,2.65
2019-02-26T05:36:39.030Z,2.67
2019-02-26T05:39:05.574Z,2.54
2019-02-26T05:41:34.050Z,2.57
2019-02-26T05:44:01.832Z,2.62
2019-02-26T05:46:29.608Z,2.62
2019-02-26T05:48:56.369Z,2.55
2019-02-26T05:51:24.571Z,2.56
2019-02-26T05:53:51.620Z,2.59
2019-02-26T05:56:20.725Z,2.61
2019-02-26T05:58:47.160Z,2.56
2019-02-26T06:01:16.262Z,2.61
2019-02-26T06:03:44.273Z,2.65
2019-02-26T06:06:11.036Z,2.59
2019-02-26T06:08:39.282Z,2.49
2019-02-26T06:11:06.376Z,2.63
2019-02-26T06:13:35.501Z,2.49
2019-02-26T06:16:01.942Z,2.60
2019-02-26T06:18:30.208Z,2.61
2019-02-26T06:20:58.630Z,2.65
2019-02-26T06:23:28.048Z,2.70
2019-02-26T06:25:55.994Z,2.66
2019-02-26T06:28:22.699Z,2.81
2019-02-26T06:30:49.399Z,2.80
2019-02-26T06:33:16.471Z,2.87
2019-02-26T06:35:43.263Z,2.94
2019-02-26T06:38:11.671Z,3.09
2019-02-26T06:40:39.343Z,3.26
2019-02-26T06:43:07.059Z,3.24
2019-02-26T06:45:35.472Z,3.26
2019-02-26T06:48:02.278Z,3.33
2019-02-26T06:50:28.959Z,3.35
2019-02-26T06:52:55.623Z,3.42
2019-02-26T06:55:22.315Z,3.34
2019-02-26T06:57:50.862Z,3.32
2019-02-26T07:00:19.733Z,3.35
2019-02-26T07:02:46.397Z,3.33
2019-02-26T07:05:13.705Z,3.21
2019-02-26T07:07:40.396Z,3.17
2019-02-26T07:10:16.002Z,3.34
2019-02-26T07:12:42.646Z,3.38
2019-02-26T07:15:16.494Z,3.59
2019-02-26T07:17:46.085Z,3.55
2019-02-26T07:20:11.678Z,3.60
2019-02-26T07:22:39.840Z,3.62
2019-02-26T07:25:10.445Z,3.59
2019-02-26T07:27:38.426Z,3.79
2019-02-26T07:30:10.284Z,3.76
2019-02-26T07:32:38.346Z,3.95
2019-02-26T07:35:08.708Z,3.93
2019-02-26T07:37:38.094Z,3.84
2019-02-26T07:40:11.099Z,3.78
2019-02-26T07:42:39.102Z,3.89
2019-02-26T07:45:14.661Z,3.93
2019-02-26T07:47:37.379Z,3.92
2019-02-26T07:50:11.611Z,4.07
2019-02-26T07:52:38.234Z,4.15
2019-02-26T07:55:09.188Z,4.30
2019-02-26T07:57:34.843Z,4.36
2019-02-26T08:00:06.235Z,4.28
2019-02-26T08:02:34.924Z,4.27
2019-02-26T08:05:01.675Z,4.03
2019-02-26T08:07:28.534Z,4.08
2019-02-26T08:09:56.905Z,4.21
2019-02-26T08:12:23.568Z,4.28
2019-02-26T08:14:50.278Z,4.49
2019-02-26T08:17:16.965Z,4.61
2019-02-26T08:19:46.622Z,4.81
2019-02-26T08:22:12.264Z,4.96
2019-02-26T08:24:38.962Z,5.15
2019-02-26T08:27:06.544Z,5.25
2019-02-26T08:29:36.132Z,5.12
2019-02-26T08:32:02.768Z,5.18
2019-02-26T08:34:29.437Z,5.11
2019-02-26T08:36:56.124Z,4.99
2019-02-26T08:39:22.811Z,5.06
2019-02-26T08:42:01.385Z,5.15
2019-02-26T08:44:28.250Z,5.21
2019-02-26T08:46:54.956Z,5.48
2019-02-26T08:49:22.539Z,5.29
2019-02-26T08:51:49.431Z,5.41
2019-02-26T08:54:20.803Z,5.67
2019-02-26T08:56:44.611Z,5.70
2019-02-26T08:59:12.396Z,5.76
2019-02-26T09:01:39.099Z,5.79
2019-02-26T09:04:05.808Z,5.84
2019-02-26T09:06:32.528Z,5.87
2019-02-26T09:09:00.161Z,5.89
2019-02-26T09:11:31.815Z,6.02
2019-02-26T09:13:59.466Z,6.12
2019-02-26T09:16:28.312Z,6.21
2019-02-26T09:18:55.372Z,6.32
2019-02-26T09:21:22.880Z,6.21
2019-02-26T09:23:53.871Z,6.21
2019-02-26T09:26:18.183Z,6.27
2019-02-26T09:28:47.530Z,6.43
2019-02-26T09:31:14.227Z,6.63
2019-02-26T09:33:43.580Z,6.88
2019-02-26T09:36:12.632Z,6.96
2019-02-26T09:38:39.281Z,7.26
2019-02-26T09:41:06.706Z,7.48
2019-02-26T09:43:33.418Z,7.76
2019-02-26T09:46:00.011Z,8.01
2019-02-26T09:48:26.751Z,8.14
2019-02-26T09:50:53.478Z,8.10
2019-02-26T09:53:20.077Z,8.19
2019-02-26T09:55:46.803Z,8.42
2019-02-26T09:58:15.741Z,8.46
2019-02-26T10:00:43.013Z,8.74
2019-02-26T10:03:12.712Z,9.42
2019-02-26T10:05:39.321Z,9.90
2019-02-26T10:08:05.933Z,10.22
2019-02-26T10:10:33.773Z,10.55
2019-02-26T10:13:02.878Z,10.92
2019-02-26T10:15:29.821Z,11.29
2019-02-26T10:17:58.797Z,11.38
2019-02-26T10:20:28.574Z,11.88
2019-02-26T10:22:57.226Z,12.53
2019-02-26T10:25:23.346Z,12.54
2019-02-26T10:27:51.553Z,12.32
2019-02-26T10:30:19.336Z,12.36
2019-02-26T10:32:46.804Z,12.45
2019-02-26T10:35:22.566Z,12.87
2019-02-26T10:37:52.565Z,13.41
2019-02-26T10:40:19.563Z,13.53
2019-02-26T10:42:46.848Z,13.59
2019-02-26T10:45:18.314Z,13.87
2019-02-26T10:47:45.055Z,13.62
2019-02-26T10:50:16.300Z,13.67
2019-02-26T10:52:42.731Z,13.76
2019-02-26T10:55:12.804Z,13.57
2019-02-26T10:57:38.476Z,13.63
2019-02-26T11:00:22.648Z,13.97
2019-02-26T11:02:51.079Z,14.53
2019-02-26T11:05:20.802Z,14.56
2019-02-26T11:07:47.132Z,14.67
2019-02-26T11:10:14.600Z,14.89
2019-02-26T11:12:42.553Z,14.75
2019-02-26T11:15:12.132Z,14.73
2019-02-26T11:17:38.892Z,15.08
2019-02-26T11:20:08.489Z,15.36
2019-02-26T11:22:35.194Z,15.60
2019-02-26T11:25:02.079Z,15.98
2019-02-26T11:27:28.776Z,16.04
2019-02-26T11:29:57.800Z,16.14
2019-02-26T11:32:24.148Z,16.42
2019-02-26T11:34:52.705Z,16.58
2019-02-26T11:37:20.318Z,16.26
2019-02-26T11:39:48.251Z,16.04
2019-02-26T11:42:16.437Z,15.86
2019-02-26T11:44:43.499Z,15.88
2019-02-26T11:47:11.132Z,15.96
2019-02-26T11:49:39.446Z,16.33
2019-02-26T11:52:08.602Z,16.59
2019-02-26T11:54:37.306Z,16.17
2019-02-26T11:57:05.186Z,16.35
2019-02-26T11:59:33.793Z,16.14
2019-02-26T12:02:03.919Z,16.06
2019-02-26T12:04:30.135Z,16.35
2019-02-26T12:06:58.526Z,17.01
2019-02-26T12:09:25.585Z,17.79
2019-02-26T12:11:52.214Z,17.98
2019-02-26T12:14:21.559Z,17.54
2019-02-26T12:16:47.421Z,17.08
2019-02-26T12:19:14.045Z,17.16
2019-02-26T12:21:40.740Z,17.12
2019-02-26T12:24:09.123Z,16.83
2019-02-26T12:26:35.953Z,16.70
2019-02-26T12:29:04.427Z,16.52
2019-02-26T12:31:34.103Z,16.56
2019-02-26T12:34:00.951Z,16.80
2019-02-26T12:36:29.835Z,16.50
2019-02-26T12:38:57.439Z,16.41
2019-02-26T12:41:24.841Z,16.26
2019-02-26T12:43:51.532Z,16.04
2019-02-26T12:46:19.738Z,16.36
2019-02-26T12:48:47.777Z,16.41
2019-02-26T12:51:15.424Z,15.94
2019-02-26T12:53:49.138Z,16.56
2019-02-26T12:56:13.551Z,16.79
2019-02-26T12:58:41.004Z,16.97
2019-02-26T13:01:08.758Z,17.24
2019-02-26T13:03:38.854Z,17.05
2019-02-26T13:06:05.871Z,17.13
2019-02-26T13:08:32.597Z,17.89
2019-02-26T13:10:59.248Z,18.57
2019-02-26T13:13:26.985Z,18.42
2019-02-26T13:15:53.597Z,18.16
2019-02-26T13:18:20.274Z,17.58
2019-02-26T13:20:52.138Z,17.74
2019-02-26T13:23:20.705Z,18.27
2019-02-26T13:25:46.272Z,18.51
2019-02-26T13:28:12.987Z,18.62
2019-02-26T13:30:39.758Z,18.96
2019-02-26T13:33:11.098Z,18.47
2019-02-26T13:35:34.995Z,18.01
2019-02-26T13:38:02.556Z,18.66
2019-02-26T13:40:29.246Z,19.03
2019-02-26T13:45:25.724Z,19.27
2019-02-26T13:47:52.427Z,19.46
2019-02-26T13:50:24.664Z,19.65
2019-02-26T13:52:51.264Z,19.80
2019-02-26T13:55:17.998Z,19.84
2019-02-26T13:57:44.696Z,20.09
2019-02-26T14:00:12.917Z,20.16
2019-02-26T14:02:39.622Z,19.92
2019-02-26T14:05:08.727Z,19.51
2019-02-26T14:07:35.337Z,19.73
2019-02-26T14:10:03.412Z,19.91
2019-02-26T14:12:30.088Z,19.63
2019-02-26T14:14:56.718Z,19.69
2019-02-26T14:17:23.439Z,19.45
2019-02-26T14:19:50.108Z,19.44
2019-02-26T14:22:17.024Z,19.57
2019-02-26T14:24:43.648Z,18.84
2019-02-26T14:27:10.372Z,19.17
2019-02-26T14:29:36.968Z,19.39
2019-02-26T14:32:03.627Z,19.45
2019-02-26T14:34:30.322Z,19.42
2019-02-26T14:36:57.061Z,19.49
2019-02-26T14:39:23.710Z,19.37
2019-02-26T14:41:50.565Z,19.61
2019-02-26T14:44:17.174Z,19.60
2019-02-26T14:46:44.906Z,19.60
2019-02-26T14:49:11.616Z,19.56
2019-02-26T14:51:38.243Z,19.38
2019-02-26T14:54:06.477Z,18.94
2019-02-26T14:56:33.475Z,18.78
2019-02-26T14:59:00.152Z,18.45
2019-02-26T15:01:26.812Z,18.64
2019-02-26T15:03:53.818Z,18.68
2019-02-26T15:06:20.531Z,18.94
2019-02-26T15:08:47.229Z,18.86
2019-02-26T15:11:13.932Z,18.80
2019-02-26T15:13:40.631Z,18.84
2019-02-26T15:16:07.320Z,18.75
2019-02-26T15:18:35.753Z,18.82
2019-02-26T15:21:02.660Z,18.72
2019-02-26T15:23:29.355Z,18.42
2019-02-26T15:25:56.063Z,18.31
2019-02-26T15:28:22.677Z,18.41
2019-02-26T15:30:49.350Z,18.48
2019-02-26T15:33:16.038Z,18.46
2019-02-26T15:35:42.750Z,18.36
2019-02-26T15:38:09.489Z,18.34
2019-02-26T15:40:36.242Z,18.25
2019-02-26T15:43:02.966Z,17.91
2019-02-26T15:45:30.766Z,17.95
2019-02-26T15:47:57.388Z,17.88
2019-02-26T15:50:24.017Z,17.84
2019-02-26T15:52:53.043Z,17.86
2019-02-26T15:55:22.840Z,17.62
2019-02-26T15:57:49.902Z,17.56
2019-02-26T16:00:18.279Z,17.36
2019-02-26T16:02:45.671Z,17.30
2019-02-26T16:05:12.349Z,17.18
2019-02-26T16:07:39.036Z,17.16
2019-02-26T16:10:08.189Z,17.06
2019-02-26T16:12:35.015Z,17.01
2019-02-26T16:15:01.719Z,16.89
2019-02-26T16:17:28.399Z,16.83
2019-02-26T16:19:55.014Z,16.70
2019-02-26T16:22:21.677Z,16.68
2019-02-26T16:24:48.363Z,16.63
2019-02-26T16:27:15.208Z,16.69
2019-02-26T16:29:41.908Z,16.58
2019-02-26T16:32:08.505Z,16.51
2019-02-26T16:34:35.465Z,16.35
2019-02-26T16:37:03.330Z,16.24
2019-02-26T16:39:31.101Z,16.19
2019-02-26T16:41:58.112Z,16.17
2019-02-26T16:44:25.423Z,16.00
2019-02-26T16:46:52.353Z,15.92
2019-02-26T16:49:19.071Z,15.84
2019-02-26T16:51:45.739Z,15.93
2019-02-26T16:54:12.382Z,15.78
2019-02-26T16:56:39.403Z,15.67
2019-02-26T16:59:07.854Z,15.57
2019-02-26T17:01:34.969Z,15.48
2019-02-26T17:04:01.671Z,15.36
2019-02-26T17:06:28.399Z,15.32
2019-02-26T17:08:54.989Z,15.19
2019-02-26T17:11:21.673Z,15.11
2019-02-26T17:13:48.355Z,15.02
2019-02-26T17:16:15.058Z,14.98
2019-02-26T17:18:42.785Z,14.95
2019-02-26T17:21:10.190Z,14.91
2019-02-26T17:23:36.810Z,14.78
2019-02-26T17:26:04.652Z,14.68
2019-02-26T17:28:31.360Z,14.64
2019-02-26T17:30:58.336Z,14.53
2019-02-26T17:33:24.955Z,14.51
2019-02-26T17:35:52.947Z,14.60
2019-02-26T17:38:19.758Z,14.57
2019-02-26T17:40:46.370Z,14.67
2019-02-26T17:43:13.063Z,14.85
2019-02-26T17:45:39.676Z,14.94
2019-02-26T17:48:06.263Z,14.94
2019-02-26T17:50:38.050Z,15.05
2019-02-26T17:53:04.857Z,14.92
2019-02-26T17:55:31.472Z,14.88
2019-02-26T17:57:58.173Z,15.05
2019-02-26T18:00:26.493Z,15.18
2019-02-26T18:02:53.207Z,15.37
2019-02-26T18:05:19.936Z,15.42
2019-02-26T18:07:47.644Z,15.51
2019-02-26T18:10:22.168Z,15.61
2019-02-26T18:12:48.857Z,15.72
2019-02-26T18:15:17.471Z,15.86
2019-02-26T18:17:44.174Z,16.01
2019-02-26T18:20:16.586Z,16.23
2019-02-26T18:22:43.195Z,16.25
2019-02-26T18:25:11.847Z,16.27
2019-02-26T18:27:38.527Z,16.18
2019-02-26T18:30:15.124Z,16.26
2019-02-26T18:32:49.987Z,16.40
2019-02-26T18:35:10.431Z,16.40
2019-02-26T18:37:46.045Z,16.34
2019-02-26T18:40:11.141Z,16.26
2019-02-26T18:42:38.708Z,15.42
2019-02-26T18:45:09.527Z,14.93
2019-02-26T18:47:36.395Z,14.38
2019-02-26T18:50:04.285Z,14.09
2019-02-26T18:52:30.964Z,13.91
2019-02-26T18:54:57.583Z,13.65
2019-02-26T18:57:24.890Z,13.67
2019-02-26T18:59:53.702Z,13.50
2019-02-26T19:02:20.338Z,13.15
2019-02-26T19:04:48.759Z,13.08
2019-02-26T19:07:16.617Z,13.08
2019-02-26T19:09:45.105Z,12.85
2019-02-26T19:12:11.834Z,12.85
2019-02-26T19:14:42.019Z,12.78
2019-02-26T19:17:07.071Z,12.70
2019-02-26T19:19:33.736Z,12.51
2019-02-26T19:22:00.429Z,12.43
2019-02-26T19:24:27.124Z,12.32
2019-02-26T19:26:54.826Z,12.15
2019-02-26T19:29:21.413Z,12.08
2019-02-26T19:31:48.096Z,11.95
2019-02-26T19:34:14.774Z,11.89
2019-02-26T19:36:45.676Z,11.75
2019-02-26T19:39:12.124Z,11.59
2019-02-26T19:41:38.894Z,11.51
2019-02-26T19:44:05.504Z,11.41
2019-02-26T19:46:32.143Z,11.37
2019-02-26T19:48:58.824Z,11.30
2019-02-26T19:51:25.659Z,11.22
2019-02-26T19:53:52.395Z,11.06
2019-02-26T19:56:23.235Z,11.05
2019-02-26T19:58:47.707Z,10.97
2019-02-26T20:01:14.378Z,10.79
2019-02-26T20:03:42.123Z,10.61
2019-02-26T20:06:08.744Z,10.46
2019-02-26T20:08:35.479Z,10.26
2019-02-26T20:11:02.148Z,10.19
2019-02-26T20:13:28.798Z,10.12
2019-02-26T20:15:55.456Z,10.08
2019-02-26T20:18:25.816Z,9.98
2019-02-26T20:20:50.656Z,9.90
2019-02-26T20:23:17.343Z,9.83
2019-02-26T20:25:44.010Z,9.79
2019-02-26T20:28:10.673Z,9.75
2019-02-26T20:30:37.335Z,9.72
2019-02-26T20:33:04.866Z,9.82
2019-02-26T20:35:31.707Z,9.84
2019-02-26T20:37:58.828Z,9.73
2019-02-26T20:40:26.026Z,9.75
2019-02-26T20:42:52.651Z,9.72
2019-02-26T20:45:22.448Z,9.64
2019-02-26T20:47:49.068Z,9.75
2019-02-26T20:50:19.973Z,9.69
2019-02-26T20:52:44.258Z,9.78
2019-02-26T20:55:16.698Z,9.70
2019-02-26T20:57:42.934Z,9.77
2019-02-26T21:00:13.259Z,9.73
2019-02-26T21:02:41.621Z,9.83
2019-02-26T21:05:09.471Z,9.88
2019-02-26T21:07:36.259Z,9.78
2019-02-26T21:10:05.427Z,9.81
2019-02-26T21:12:32.099Z,9.73
2019-02-26T21:14:58.722Z,9.72
2019-02-26T21:17:25.824Z,9.78
2019-02-26T21:19:53.040Z,9.50
2019-02-26T21:22:21.816Z,9.50
2019-02-26T21:24:48.271Z,9.40
2019-02-26T21:27:14.947Z,9.43
2019-02-26T21:29:41.688Z,9.45
2019-02-26T21:32:08.382Z,9.35
2019-02-26T21:34:35.018Z,9.31
2019-02-26T21:37:01.762Z,9.12
2019-02-26T21:39:28.351Z,9.15
2019-02-26T21:41:56.385Z,9.01
2019-02-26T21:44:23.379Z,9.02
2019-02-26T21:46:50.020Z,8.93
2019-02-26T21:49:16.667Z,8.82
2019-02-26T21:51:43.463Z,8.72
2019-02-26T21:54:10.054Z,8.74
2019-02-26T21:56:36.752Z,8.62
2019-02-26T21:59:03.453Z,8.46
2019-02-26T22:01:30.147Z,8.31
2019-02-26T22:03:58.578Z,8.27
2019-02-26T22:06:25.508Z,8.22
2019-02-26T22:08:52.132Z,8.06
2019-02-26T22:11:19.166Z,7.97
2019-02-26T22:13:45.986Z,8.02
2019-02-26T22:16:14.940Z,7.92
2019-02-26T22:18:41.472Z,7.77
2019-02-26T22:21:08.182Z,7.85
2019-02-26T22:23:34.914Z,7.64
2019-02-26T22:26:01.680Z,7.55
2019-02-26T22:28:28.370Z,7.54
2019-02-26T22:30:55.903Z,7.48
2019-02-26T22:33:23.266Z,7.35
2019-02-26T22:35:49.967Z,7.51
2019-02-26T22:38:16.559Z,7.48
2019-02-26T22:40:43.244Z,7.41
2019-02-26T22:43:13.623Z,7.31
2019-02-26T22:45:38.471Z,7.22
2019-02-26T22:48:05.965Z,7.33
2019-02-26T22:50:32.687Z,7.16
2019-02-26T22:53:03.751Z,7.11
2019-02-26T22:55:28.137Z,7.04
2019-02-26T22:57:54.834Z,7.09
2019-02-26T23:00:50.604Z,7.08
2019-02-26T23:03:19.311Z,6.99
2019-02-26T23:05:46.010Z,6.83
2019-02-26T23:08:12.708Z,6.73
2019-02-26T23:10:39.497Z,6.82
2019-02-26T23:13:06.246Z,6.52
2019-02-26T23:15:34.035Z,6.53
2019-02-26T23:18:00.765Z,6.44
2019-02-26T23:20:27.469Z,6.58
2019-02-26T23:22:54.319Z,6.53
2019-02-26T23:25:21.135Z,6.16
2019-02-26T23:27:48.698Z,6.18
2019-02-26T23:30:16.407Z,6.23
2019-02-26T23:32:43.088Z,6.29
2019-02-26T23:35:12.017Z,6.28
2019-02-26T23:37:38.744Z,6.29
2019-02-26T23:40:08.172Z,6.19
2019-02-26T23:42:38.593Z,6.20
2019-02-26T23:45:06.882Z,6.18
2019-02-26T23:47:35.133Z,6.14
2019-02-26T23:50:02.029Z,6.10
2019-02-26T23:52:28.721Z,6.19
2019-02-26T23:54:55.357Z,6.06
2019-02-26T23:57:22.780Z,6.01
2019-02-26T23:59:50.607Z,5.85
